Time;durP1;ratioP1;P1;durP2;ratioP2;P2;SDS_P1;SDS_P2;PMS_P1;PMS_P2;Temp;Humidity;BMP_temperature;BMP_pressure;BME280_temperature;BME280_humidity;BME280_pressure;Samples;Min_cycle;Max_cycle;Signal;HPM_P1;HPM_P2
2022/04/17 00:01:43;;;;;;;;;;;20.70;46.20;;;;;;5054547;28;20357;-73
2022/04/17 00:04:10;;;;;;;;;;;20.70;46.50;;;;;;5054431;28;19909;-74
2022/04/17 00:06:36;;;;;;;;;;;20.70;46.60;;;;;;5054437;28;19915;-73
2022/04/17 00:09:02;;;;;;;;;;;20.70;46.40;;;;;;5053964;28;19936;-73
2022/04/17 00:11:28;;;;;;;;;;;20.70;46.50;;;;;;5054420;28;20384;-74
2022/04/17 00:13:54;;;;;;;;;;;20.70;46.40;;;;;;5053832;28;19954;-74
2022/04/17 00:16:20;;;;;;;;;;;20.70;46.80;;;;;;5054287;28;20373;-74
2022/04/17 00:18:46;;;;;;;;;;;20.70;46.70;;;;;;5053957;28;19932;-74
2022/04/17 00:21:11;;;;;;;;;;;20.70;46.30;;;;;;5054117;28;19909;-74
2022/04/17 00:23:36;;;;;;;;;;;20.70;46.60;;;;;;5053890;28;19909;-75
2022/04/17 00:26:02;;;;;;;;;;;20.70;46.30;;;;;;5054043;28;19913;-74
2022/04/17 00:28:28;;;;;;;;;;;20.70;46.30;;;;;;5053631;28;19919;-74
2022/04/17 00:30:54;;;;;;;;;;;20.70;46.10;;;;;;5053961;28;20292;-75
2022/04/17 00:33:19;;;;;;;;;;;20.70;46.00;;;;;;5035943;28;19909;-74
2022/04/17 00:35:45;;;;;;;;;;;20.80;46.60;;;;;;5053911;28;19916;-75
2022/04/17 00:38:11;;;;;;;;;;;20.80;46.70;;;;;;5053934;28;19995;-73
2022/04/17 00:40:36;;;;;;;;;;;20.80;46.70;;;;;;5053487;28;19912;-76
2022/04/17 00:43:02;;;;;;;;;;;20.80;46.50;;;;;;5053612;28;19913;-75
2022/04/17 00:45:27;;;;;;;;;;;20.80;46.60;;;;;;5052653;28;19913;-76
2022/04/17 00:47:53;;;;;;;;;;;20.80;46.50;;;;;;5053584;28;19908;-73
2022/04/17 00:50:19;;;;;;;;;;;20.80;46.40;;;;;;5053247;28;19913;-74
2022/04/17 00:52:45;;;;;;;;;;;20.80;46.50;;;;;;5035368;28;20372;-74
2022/04/17 00:55:10;;;;;;;;;;;20.80;46.60;;;;;;5053463;28;19920;-73
2022/04/17 00:57:36;;;;;;;;;;;20.80;46.50;;;;;;5053475;28;19909;-75
2022/04/17 01:00:02;;;;;;;;;;;20.80;46.30;;;;;;5035221;28;20068;-74
2022/04/17 01:02:28;;;;;;;;;;;20.80;46.40;;;;;;5053415;28;19962;-74
2022/04/17 01:04:53;;;;;;;;;;;20.80;46.50;;;;;;5053244;28;19913;-74
2022/04/17 01:07:21;;;;;;;;;;;20.80;46.50;;;;;;5053376;28;19913;-74
2022/04/17 01:09:47;;;;;;;;;;;20.80;46.40;;;;;;5052791;28;20337;-74
2022/04/17 01:12:13;;;;;;;;;;;20.80;46.10;;;;;;5053387;28;19960;-74
2022/04/17 01:14:39;;;;;;;;;;;20.80;46.30;;;;;;5052943;28;19952;-74
2022/04/17 01:17:06;;;;;;;;;;;20.80;46.00;;;;;;5053129;28;19959;-74
2022/04/17 01:19:32;;;;;;;;;;;20.90;46.00;;;;;;5052871;28;19912;-74
2022/04/17 01:21:57;;;;;;;;;;;20.90;45.90;;;;;;5053080;28;20046;-74
2022/04/17 01:27:07;;;;;;;;;;;20.80;45.60;;;;;;5053010;28;19928;-74
2022/04/17 01:29:37;;;;;;;;;;;20.90;46.20;;;;;;5052506;28;19917;-74
2022/04/17 01:32:04;;;;;;;;;;;20.90;46.00;;;;;;5052741;28;20324;-74
2022/04/17 01:34:29;;;;;;;;;;;20.90;46.10;;;;;;5058802;28;20029;-74
2022/04/17 01:36:55;;;;;;;;;;;20.90;46.10;;;;;;5067369;28;20003;-75
2022/04/17 01:39:21;;;;;;;;;;;20.90;46.10;;;;;;5070225;28;19919;-75
2022/04/17 01:41:47;;;;;;;;;;;20.80;46.00;;;;;;5061463;28;19985;-74
2022/04/17 01:44:13;;;;;;;;;;;20.80;46.40;;;;;;5072095;28;20023;-74
2022/04/17 01:46:38;;;;;;;;;;;20.90;47.70;;;;;;5072343;28;19952;-76
2022/04/17 01:49:04;;;;;;;;;;;20.80;45.70;;;;;;5072024;28;19912;-75
2022/04/17 01:51:33;;;;;;;;;;;20.90;46.40;;;;;;5054491;28;19915;-76
2022/04/17 01:53:58;;;;;;;;;;;20.80;45.90;;;;;;5071989;28;19923;-75
2022/04/17 01:56:24;;;;;;;;;;;20.80;46.00;;;;;;5072174;28;19909;-75
2022/04/17 01:58:49;;;;;;;;;;;20.80;46.20;;;;;;5072008;28;20359;-76
2022/04/17 02:01:15;;;;;;;;;;;20.90;45.80;;;;;;5072157;28;19913;-75
2022/04/17 02:03:41;;;;;;;;;;;20.80;45.80;;;;;;5072186;28;19956;-75
2022/04/17 02:06:06;;;;;;;;;;;20.80;45.60;;;;;;5072322;28;19912;-74
2022/04/17 02:08:31;;;;;;;;;;;20.80;45.80;;;;;;5071847;28;19923;-76
2022/04/17 02:10:57;;;;;;;;;;;20.70;45.60;;;;;;5059540;28;19909;-74
2022/04/17 02:13:23;;;;;;;;;;;20.80;45.70;;;;;;5078562;28;20288;-75
2022/04/17 02:15:53;;;;;;;;;;;20.70;45.40;;;;;;5080890;28;19916;-75
2022/04/17 02:18:20;;;;;;;;;;;20.70;45.40;;;;;;5054811;28;19947;-75
2022/04/17 02:20:49;;;;;;;;;;;20.70;45.60;;;;;;5054063;28;20327;-75
2022/04/17 02:23:14;;;;;;;;;;;20.70;45.40;;;;;;5053834;28;19920;-75
2022/04/17 02:25:40;;;;;;;;;;;20.70;45.50;;;;;;5071697;28;20300;-75
2022/04/17 02:28:06;;;;;;;;;;;20.70;45.40;;;;;;5071869;28;19908;-75
2022/04/17 02:30:32;;;;;;;;;;;20.70;45.60;;;;;;5071484;28;19916;-75
2022/04/17 02:32:57;;;;;;;;;;;20.60;45.30;;;;;;5071862;28;19908;-75
2022/04/17 02:35:22;;;;;;;;;;;20.60;45.30;;;;;;5071660;28;19908;-75
2022/04/17 02:37:48;;;;;;;;;;;20.60;46.00;;;;;;5071572;28;19912;-75
2022/04/17 02:40:13;;;;;;;;;;;20.60;45.30;;;;;;5053298;28;19919;-75
2022/04/17 02:42:39;;;;;;;;;;;20.60;45.70;;;;;;5071498;28;19978;-75
2022/04/17 02:45:04;;;;;;;;;;;20.60;45.60;;;;;;5071479;28;19908;-75
2022/04/17 02:47:51;;;;;;;;;;;20.60;45.40;;;;;;5071567;28;20334;-76
2022/04/17 02:50:17;;;;;;;;;;;20.60;46.30;;;;;;5071268;28;19958;-75
2022/04/17 02:52:43;;;;;;;;;;;20.60;45.40;;;;;;5071400;28;19920;-75
2022/04/17 02:55:09;;;;;;;;;;;20.60;45.60;;;;;;5071577;28;19913;-76
2022/04/17 02:57:34;;;;;;;;;;;20.60;45.60;;;;;;5071460;28;19912;-76
2022/04/17 03:00:00;;;;;;;;;;;20.60;45.80;;;;;;5071235;28;19974;-76
2022/04/17 03:07:55;;;;;;;;;;;20.50;45.40;;;;;;5112361;28;19914;-72
2022/04/17 03:10:20;;;;;;;;;;;20.50;45.80;;;;;;5115875;28;19916;-75
2022/04/17 03:12:46;;;;;;;;;;;20.50;45.60;;;;;;5116075;28;19912;-73
2022/04/17 03:15:11;;;;;;;;;;;20.40;45.80;;;;;;5116123;28;19939;-73
2022/04/17 03:17:37;;;;;;;;;;;20.50;46.00;;;;;;5116024;27;19961;-73
2022/04/17 03:20:03;;;;;;;;;;;20.50;46.10;;;;;;5115792;28;20274;-72
2022/04/17 03:22:29;;;;;;;;;;;20.40;45.90;;;;;;5115852;28;19915;-72
2022/04/17 03:24:54;;;;;;;;;;;20.40;45.80;;;;;;5115937;28;19908;-72
2022/04/17 03:27:20;;;;;;;;;;;20.40;45.90;;;;;;5115938;28;19915;-74
2022/04/17 03:29:45;;;;;;;;;;;20.40;45.80;;;;;;5114234;28;19942;-72
2022/04/17 03:32:10;;;;;;;;;;;20.40;45.90;;;;;;5116068;28;20385;-72
2022/04/17 03:34:36;;;;;;;;;;;20.40;45.90;;;;;;5115580;28;20294;-72
2022/04/17 03:37:03;;;;;;;;;;;20.40;45.80;;;;;;5115798;28;19908;-73
2022/04/17 03:39:28;;;;;;;;;;;20.40;45.80;;;;;;5115440;27;20465;-73
2022/04/17 03:41:54;;;;;;;;;;;20.40;45.80;;;;;;5115591;28;19978;-74
2022/04/17 03:44:19;;;;;;;;;;;20.40;45.50;;;;;;5115717;28;20287;-73
2022/04/17 03:46:45;;;;;;;;;;;20.40;45.90;;;;;;5115687;28;20295;-73
2022/04/17 03:49:11;;;;;;;;;;;20.30;45.90;;;;;;5115473;28;19915;-73
2022/04/17 03:51:36;;;;;;;;;;;20.30;45.40;;;;;;5115567;28;19908;-74
2022/04/17 03:54:02;;;;;;;;;;;20.30;45.80;;;;;;5115510;28;19914;-73
2022/04/17 03:56:27;;;;;;;;;;;20.30;45.40;;;;;;5115532;28;19908;-73
2022/04/17 03:58:53;;;;;;;;;;;20.30;45.90;;;;;;5115256;28;19918;-74
2022/04/17 04:01:18;;;;;;;;;;;20.30;45.80;;;;;;5115309;28;19912;-73
2022/04/17 04:03:44;;;;;;;;;;;20.30;46.00;;;;;;5115180;28;19912;-73
2022/04/17 04:06:10;;;;;;;;;;;20.30;45.70;;;;;;5114164;28;20358;-73
2022/04/17 04:08:35;;;;;;;;;;;20.30;46.00;;;;;;5114971;28;19915;-73
2022/04/17 04:11:01;;;;;;;;;;;20.30;45.80;;;;;;5115259;28;20412;-75
2022/04/17 04:13:26;;;;;;;;;;;20.30;45.90;;;;;;5115386;28;19908;-73
2022/04/17 04:15:55;;;;;;;;;;;20.30;45.90;;;;;;5115130;28;19916;-73
2022/04/17 04:18:21;;;;;;;;;;;20.30;45.70;;;;;;5114761;28;19908;-77
2022/04/17 04:20:46;;;;;;;;;;;20.30;45.80;;;;;;5114621;28;20278;-74
2022/04/17 04:23:12;;;;;;;;;;;20.20;45.70;;;;;;5114932;28;19994;-73
2022/04/17 04:25:37;;;;;;;;;;;20.20;45.80;;;;;;5113387;28;19908;-72
2022/04/17 04:30:47;;;;;;;;;;;20.20;45.70;;;;;;5114617;28;19933;-72
2022/04/17 04:33:12;;;;;;;;;;;20.20;45.70;;;;;;5114715;28;20010;-72
2022/04/17 04:35:38;;;;;;;;;;;20.20;45.80;;;;;;5114471;28;19908;-74
2022/04/17 04:38:05;;;;;;;;;;;20.20;45.80;;;;;;5114632;28;19943;-72
2022/04/17 04:40:30;;;;;;;;;;;20.20;45.70;;;;;;5114165;27;19915;-75
2022/04/17 04:42:57;;;;;;;;;;;20.20;45.70;;;;;;5114420;28;19912;-74
2022/04/17 04:48:06;;;;;;;;;;;20.20;45.80;;;;;;5114595;28;20339;-73
2022/04/17 04:50:32;;;;;;;;;;;20.10;45.70;;;;;;5114283;28;19999;-75
2022/04/17 04:52:57;;;;;;;;;;;20.10;45.60;;;;;;5114267;28;19912;-72
2022/04/17 04:55:23;;;;;;;;;;;20.10;45.40;;;;;;5114224;28;19908;-72
2022/04/17 04:57:48;;;;;;;;;;;20.10;45.60;;;;;;5112802;28;20320;-73
2022/04/17 05:00:14;;;;;;;;;;;20.10;45.60;;;;;;5113951;28;19958;-73
2022/04/17 05:02:40;;;;;;;;;;;20.10;45.50;;;;;;5113772;28;19955;-72
2022/04/17 05:05:06;;;;;;;;;;;20.20;45.30;;;;;;5114103;28;20363;-73
2022/04/17 05:07:32;;;;;;;;;;;20.10;45.40;;;;;;5114038;28;19954;-72
2022/04/17 05:09:57;;;;;;;;;;;20.10;45.50;;;;;;5113560;28;20407;-73
2022/04/17 05:12:23;;;;;;;;;;;20.10;45.60;;;;;;5114024;28;19908;-74
2022/04/17 05:14:48;;;;;;;;;;;20.10;45.40;;;;;;5112579;28;19999;-73
2022/04/17 05:17:14;;;;;;;;;;;20.10;45.90;;;;;;5114041;28;19914;-74
2022/04/17 05:19:39;;;;;;;;;;;20.10;45.70;;;;;;5113593;28;20397;-72
2022/04/17 05:22:10;;;;;;;;;;;20.10;45.90;;;;;;5114002;28;20282;-72
2022/04/17 05:24:36;;;;;;;;;;;20.10;46.00;;;;;;5113522;28;19930;-73
2022/04/17 05:27:02;;;;;;;;;;;20.20;45.80;;;;;;5113600;28;20369;-73
2022/04/17 05:29:27;;;;;;;;;;;20.20;45.00;;;;;;5113162;28;19912;-74
2022/04/17 05:31:52;;;;;;;;;;;20.20;45.20;;;;;;5112946;28;19943;-73
2022/04/17 05:34:18;;;;;;;;;;;20.20;45.10;;;;;;5112896;28;20282;-74
2022/04/17 05:36:43;;;;;;;;;;;20.30;44.30;;;;;;5111722;28;19908;-73
2022/04/17 05:39:09;;;;;;;;;;;20.30;44.10;;;;;;5112457;28;19912;-73
2022/04/17 05:41:35;;;;;;;;;;;20.40;45.90;;;;;;5112854;28;19919;-73
2022/04/17 05:44:00;;;;;;;;;;;20.50;45.30;;;;;;5112997;28;20442;-73
2022/04/17 05:46:30;;;;;;;;;;;20.50;44.10;;;;;;5113218;28;19998;-75
2022/04/17 05:48:57;;;;;;;;;;;20.60;43.40;;;;;;5113048;28;19973;-75
2022/04/17 05:51:23;;;;;;;;;;;20.70;43.20;;;;;;5111994;28;19962;-72
2022/04/17 05:53:48;;;;;;;;;;;20.70;43.00;;;;;;5111926;28;19947;-73
2022/04/17 05:56:14;;;;;;;;;;;20.70;42.80;;;;;;5113336;28;19908;-77
2022/04/17 05:58:39;;;;;;;;;;;20.80;42.60;;;;;;5113251;28;19908;-73
2022/04/17 06:01:05;;;;;;;;;;;20.90;43.20;;;;;;5113624;28;20278;-73
2022/04/17 06:03:30;;;;;;;;;;;20.90;42.90;;;;;;5113437;28;19916;-73
2022/04/17 06:05:56;;;;;;;;;;;21.00;44.00;;;;;;5112200;28;20310;-72
2022/04/17 06:08:22;;;;;;;;;;;21.10;44.00;;;;;;5112836;28;19908;-72
2022/04/17 06:10:47;;;;;;;;;;;21.10;44.00;;;;;;5108442;28;20363;-72
2022/04/17 06:13:13;;;;;;;;;;;21.20;43.30;;;;;;5095383;28;19935;-72
2022/04/17 06:15:40;;;;;;;;;;;21.20;44.90;;;;;;5092656;28;19912;-73
2022/04/17 06:18:06;;;;;;;;;;;21.20;44.60;;;;;;5106208;28;20383;-71
2022/04/17 06:20:31;;;;;;;;;;;21.30;44.30;;;;;;5110659;28;19918;-71
2022/04/17 06:22:57;;;;;;;;;;;21.40;44.30;;;;;;5106180;28;19916;-73
2022/04/17 06:25:22;;;;;;;;;;;21.50;44.50;;;;;;5101504;28;19916;-71
2022/04/17 06:27:48;;;;;;;;;;;21.60;44.40;;;;;;5104398;28;20287;-72
2022/04/17 06:30:17;;;;;;;;;;;21.60;44.50;;;;;;5110302;28;19970;-71
2022/04/17 06:32:43;;;;;;;;;;;21.60;44.10;;;;;;5112068;28;19915;-71
2022/04/17 06:35:09;;;;;;;;;;;21.70;44.30;;;;;;5112509;28;20270;-71
2022/04/17 06:37:47;;;;;;;;;;;21.70;44.50;;;;;;5111074;28;19911;-71
2022/04/17 06:40:16;;;;;;;;;;;21.80;44.60;;;;;;5110590;28;20343;-71
2022/04/17 06:42:42;;;;;;;;;;;21.80;44.40;;;;;;5104855;28;19912;-74
2022/04/17 06:45:08;;;;;;;;;;;21.90;45.30;;;;;;5107799;28;19957;-74
2022/04/17 06:47:33;;;;;;;;;;;21.90;44.80;;;;;;5112747;28;19908;-73
2022/04/17 06:49:59;;;;;;;;;;;22.00;44.70;;;;;;5112294;28;20382;-72
2022/04/17 06:52:24;;;;;;;;;;;22.00;45.30;;;;;;5109745;28;19951;-74
2022/04/17 06:54:50;;;;;;;;;;;22.10;45.00;;;;;;5102697;28;19909;-77
2022/04/17 06:57:15;;;;;;;;;;;22.10;44.70;;;;;;5092573;28;19916;-74
2022/04/17 06:59:41;;;;;;;;;;;22.20;42.30;;;;;;5111303;28;20358;-73
2022/04/17 07:02:06;;;;;;;;;;;22.20;44.00;;;;;;5110807;28;20378;-72
2022/04/17 07:04:32;;;;;;;;;;;22.30;44.00;;;;;;5103364;28;19912;-73
2022/04/17 07:06:57;;;;;;;;;;;22.20;43.80;;;;;;5101488;28;19908;-72
2022/04/17 07:09:23;;;;;;;;;;;22.20;44.00;;;;;;5093350;28;20391;-72
2022/04/17 07:11:48;;;;;;;;;;;22.30;42.90;;;;;;5101172;28;19915;-76
2022/04/17 07:14:15;;;;;;;;;;;22.30;43.10;;;;;;5111149;28;20408;-72
2022/04/17 07:16:43;;;;;;;;;;;22.30;42.80;;;;;;5100898;28;19934;-75
2022/04/17 07:19:09;;;;;;;;;;;22.40;43.10;;;;;;5110264;28;20011;-72
2022/04/17 07:21:35;;;;;;;;;;;22.40;42.70;;;;;;5109566;28;19963;-73
2022/04/17 07:24:01;;;;;;;;;;;22.40;42.60;;;;;;5105359;28;19915;-73
2022/04/17 07:26:27;;;;;;;;;;;22.40;42.80;;;;;;5104424;28;19923;-74
2022/04/17 07:28:53;;;;;;;;;;;22.40;42.40;;;;;;5103982;28;19929;-75
2022/04/17 07:31:19;;;;;;;;;;;22.50;42.70;;;;;;5105811;28;19912;-75
2022/04/17 07:33:44;;;;;;;;;;;22.50;42.20;;;;;;5099853;28;20333;-75
2022/04/17 07:36:10;;;;;;;;;;;22.50;42.20;;;;;;5110194;28;19916;-75
2022/04/17 07:38:35;;;;;;;;;;;22.60;42.10;;;;;;5105558;28;20079;-75
2022/04/17 07:41:01;;;;;;;;;;;22.60;42.70;;;;;;5102874;28;19958;-76
2022/04/17 07:43:26;;;;;;;;;;;22.60;41.70;;;;;;5107577;28;20004;-76
2022/04/17 07:45:52;;;;;;;;;;;22.60;42.30;;;;;;5103236;28;19926;-76
2022/04/17 07:48:19;;;;;;;;;;;22.60;42.30;;;;;;5105434;28;20050;-76
2022/04/17 07:50:44;;;;;;;;;;;22.70;42.10;;;;;;5105711;28;20340;-77
2022/04/17 07:53:10;;;;;;;;;;;22.70;41.80;;;;;;5099138;28;19999;-76
2022/04/17 07:55:35;;;;;;;;;;;22.70;41.90;;;;;;5110135;28;20022;-77
2022/04/17 08:00:28;;;;;;;;;;;22.80;41.50;;;;;;5107111;28;19958;-76
2022/04/17 08:02:55;;;;;;;;;;;22.80;41.80;;;;;;5106067;28;19920;-76
2022/04/17 08:05:24;;;;;;;;;;;22.80;41.40;;;;;;5098362;28;19916;-76
2022/04/17 08:07:51;;;;;;;;;;;22.90;41.50;;;;;;5103927;28;19918;-77
2022/04/17 08:10:17;;;;;;;;;;;22.80;41.60;;;;;;5110157;28;19919;-77
2022/04/17 08:12:42;;;;;;;;;;;23.00;41.40;;;;;;5113564;28;19912;-76
2022/04/17 08:15:08;;;;;;;;;;;22.90;41.50;;;;;;5108047;28;19958;-76
2022/04/17 08:17:34;;;;;;;;;;;23.00;41.60;;;;;;5109732;28;19912;-77
2022/04/17 08:19:59;;;;;;;;;;;23.00;41.40;;;;;;5102880;28;19964;-77
2022/04/17 08:22:25;;;;;;;;;;;23.00;41.40;;;;;;5108347;28;19919;-79
2022/04/17 08:24:50;;;;;;;;;;;23.00;41.40;;;;;;5112166;27;19916;-77
2022/04/17 08:27:16;;;;;;;;;;;23.10;41.40;;;;;;5109315;28;20019;-77
2022/04/17 08:29:41;;;;;;;;;;;23.10;41.40;;;;;;5109472;28;20006;-78
2022/04/17 08:32:07;;;;;;;;;;;23.00;41.30;;;;;;5109406;28;20071;-78
2022/04/17 08:34:32;;;;;;;;;;;23.10;41.30;;;;;;5107035;28;19927;-78
2022/04/17 08:36:59;;;;;;;;;;;23.10;41.40;;;;;;5108393;28;19922;-78
2022/04/17 08:39:25;;;;;;;;;;;23.20;41.30;;;;;;5110338;28;19920;-78
2022/04/17 08:41:51;;;;;;;;;;;23.10;41.10;;;;;;5109461;28;20325;-79
2022/04/17 08:44:17;;;;;;;;;;;23.20;41.10;;;;;;5111463;28;19913;-78
2022/04/17 08:46:42;;;;;;;;;;;23.20;41.10;;;;;;5096867;28;19916;-75
2022/04/17 08:49:10;;;;;;;;;;;23.20;41.10;;;;;;5103744;28;20409;-79
2022/04/17 08:51:36;;;;;;;;;;;23.20;41.00;;;;;;5105594;28;19920;-78
2022/04/17 08:54:02;;;;;;;;;;;23.30;40.80;;;;;;5105071;28;19926;-77
2022/04/17 08:56:28;;;;;;;;;;;23.30;40.90;;;;;;5109702;28;19912;-78
2022/04/17 08:58:54;;;;;;;;;;;23.30;40.80;;;;;;5109618;27;19912;-79
2022/04/17 09:01:20;;;;;;;;;;;23.30;40.90;;;;;;5106904;28;19916;-77
2022/04/17 09:03:47;;;;;;;;;;;23.30;40.80;;;;;;5107024;27;19972;-76
2022/04/17 09:06:21;;;;;;;;;;;23.30;40.70;;;;;;5103307;28;20031;-78
2022/04/17 09:08:57;;;;;;;;;;;23.30;40.60;;;;;;5109888;28;20014;-78
2022/04/17 09:11:27;;;;;;;;;;;23.40;40.70;;;;;;5111698;28;20397;-76
2022/04/17 09:14:03;;;;;;;;;;;23.40;40.60;;;;;;5113140;27;19953;-79
2022/04/17 09:16:31;;;;;;;;;;;23.40;40.60;;;;;;5111347;28;19951;-78
2022/04/17 09:18:57;;;;;;;;;;;23.40;40.50;;;;;;5106018;28;20490;-80
2022/04/17 09:21:34;;;;;;;;;;;23.40;40.60;;;;;;5108042;28;19999;-75
2022/04/17 09:24:12;;;;;;;;;;;23.40;40.40;;;;;;5105813;28;19919;-77
2022/04/17 09:26:38;;;;;;;;;;;23.50;40.50;;;;;;5105524;27;19915;-77
2022/04/17 09:29:16;;;;;;;;;;;23.50;40.40;;;;;;5106335;28;20267;-77
2022/04/17 09:31:42;;;;;;;;;;;23.50;40.40;;;;;;5113625;28;19912;-76
2022/04/17 09:34:07;;;;;;;;;;;23.50;40.40;;;;;;5110699;28;19937;-77
2022/04/17 09:36:36;;;;;;;;;;;23.50;40.40;;;;;;5108433;28;19934;-77
2022/04/17 09:39:15;;;;;;;;;;;23.60;40.40;;;;;;5108332;28;20418;-78
2022/04/17 09:41:59;;;;;;;;;;;23.60;40.40;;;;;;5110653;28;19926;-77
2022/04/17 09:44:34;;;;;;;;;;;23.60;40.40;;;;;;5104971;28;20428;-76
2022/04/17 09:47:00;;;;;;;;;;;23.60;40.40;;;;;;5105915;28;19912;-76
2022/04/17 09:49:26;;;;;;;;;;;23.60;40.40;;;;;;5105770;28;20379;-75
2022/04/17 09:52:05;;;;;;;;;;;23.60;40.30;;;;;;5100976;28;19999;-76
2022/04/17 09:54:31;;;;;;;;;;;23.60;40.30;;;;;;5100369;28;19912;-76
2022/04/17 09:56:56;;;;;;;;;;;23.70;40.40;;;;;;5111458;28;19916;-80
2022/04/17 09:59:23;;;;;;;;;;;23.70;40.40;;;;;;5102860;28;20340;-75
2022/04/17 10:01:52;;;;;;;;;;;23.60;40.30;;;;;;5105579;28;19916;-74
2022/04/17 10:04:21;;;;;;;;;;;23.70;40.50;;;;;;5112669;28;19918;-73
2022/04/17 10:06:51;;;;;;;;;;;23.60;40.40;;;;;;5100261;28;19911;-72
2022/04/17 10:09:16;;;;;;;;;;;23.60;39.60;;;;;;5112999;28;19916;-72
2022/04/17 10:11:42;;;;;;;;;;;23.50;39.30;;;;;;5112482;28;20015;-73
2022/04/17 10:14:07;;;;;;;;;;;23.40;39.70;;;;;;5111229;28;19911;-75
2022/04/17 10:16:33;;;;;;;;;;;23.40;39.20;;;;;;5102566;28;19912;-74
2022/04/17 10:19:05;;;;;;;;;;;23.30;38.30;;;;;;5109326;28;20358;-72
2022/04/17 10:21:34;;;;;;;;;;;23.30;36.90;;;;;;5112743;28;19907;-72
2022/04/17 10:24:01;;;;;;;;;;;23.20;36.10;;;;;;5111313;28;19908;-73
2022/04/17 10:26:28;;;;;;;;;;;23.10;37.20;;;;;;5106764;28;19920;-72
2022/04/17 10:28:55;;;;;;;;;;;23.10;36.40;;;;;;5111734;28;19916;-72
2022/04/17 10:31:21;;;;;;;;;;;23.00;36.70;;;;;;5092750;28;20290;-72
2022/04/17 10:34:01;;;;;;;;;;;23.00;35.10;;;;;;5110419;28;20006;-72
2022/04/17 10:36:29;;;;;;;;;;;23.00;35.60;;;;;;5112939;28;19945;-72
2022/04/17 10:39:01;;;;;;;;;;;22.90;32.00;;;;;;5111543;28;20313;-72
2022/04/17 10:41:27;;;;;;;;;;;22.80;31.40;;;;;;5108272;28;19920;-72
2022/04/17 10:43:56;;;;;;;;;;;22.80;33.90;;;;;;5112226;28;20328;-74
2022/04/17 10:46:22;;;;;;;;;;;22.70;34.60;;;;;;5112304;28;19914;-72
2022/04/17 10:48:51;;;;;;;;;;;22.70;34.70;;;;;;5111973;28;19908;-74
2022/04/17 10:51:27;;;;;;;;;;;22.70;31.90;;;;;;5112321;28;19980;-73
2022/04/17 10:54:14;;;;;;;;;;;22.60;31.90;;;;;;5112138;28;19915;-73
2022/04/17 10:56:41;;;;;;;;;;;22.60;30.50;;;;;;5112091;28;19964;-74
2022/04/17 10:59:16;;;;;;;;;;;22.50;32.20;;;;;;5111736;28;19936;-73
2022/04/17 11:01:41;;;;;;;;;;;22.50;31.30;;;;;;5111808;28;19919;-76
2022/04/17 11:04:16;;;;;;;;;;;22.50;30.90;;;;;;5111978;28;19907;-75
2022/04/17 11:06:42;;;;;;;;;;;22.40;29.70;;;;;;5111708;28;19961;-75
2022/04/17 11:09:15;;;;;;;;;;;22.30;29.20;;;;;;5111574;28;19916;-76
2022/04/17 11:11:43;;;;;;;;;;;22.30;30.80;;;;;;5111835;28;19912;-74
2022/04/17 11:14:13;;;;;;;;;;;22.30;29.50;;;;;;5110635;28;19908;-75
2022/04/17 11:16:45;;;;;;;;;;;22.10;28.70;;;;;;5111816;28;20434;-75
2022/04/17 11:19:14;;;;;;;;;;;22.10;29.50;;;;;;5111637;28;20145;-74
2022/04/17 11:21:44;;;;;;;;;;;22.20;30.50;;;;;;5111717;28;20745;-75
2022/04/17 11:24:10;;;;;;;;;;;22.20;29.10;;;;;;5110643;28;19943;-74
2022/04/17 11:26:51;;;;;;;;;;;22.20;31.10;;;;;;5110676;28;20364;-74
2022/04/17 11:29:16;;;;;;;;;;;22.20;30.70;;;;;;5112195;28;20139;-75
2022/04/17 11:31:42;;;;;;;;;;;22.20;29.40;;;;;;5115660;28;19914;-75
2022/04/17 11:34:07;;;;;;;;;;;22.10;29.80;;;;;;5115986;28;19908;-75
2022/04/17 11:36:33;;;;;;;;;;;22.10;30.20;;;;;;5115759;28;19911;-75
2022/04/17 11:38:58;;;;;;;;;;;22.10;30.00;;;;;;5115417;28;20374;-75
2022/04/17 11:41:24;;;;;;;;;;;22.00;28.90;;;;;;5115756;28;19915;-74
2022/04/17 11:43:59;;;;;;;;;;;21.90;28.80;;;;;;5114285;28;19939;-76
2022/04/17 11:46:25;;;;;;;;;;;22.00;31.10;;;;;;5115749;28;19908;-74
2022/04/17 11:48:53;;;;;;;;;;;22.00;29.90;;;;;;5115320;28;19916;-74
2022/04/17 11:51:19;;;;;;;;;;;21.80;28.80;;;;;;5115419;28;19908;-74
2022/04/17 11:53:45;;;;;;;;;;;21.90;30.30;;;;;;5115338;28;19915;-74
2022/04/17 11:56:10;;;;;;;;;;;21.90;29.20;;;;;;5115575;28;19908;-75
2022/04/17 11:58:35;;;;;;;;;;;21.90;29.60;;;;;;5114869;28;19911;-75
2022/04/17 12:01:04;;;;;;;;;;;21.90;30.00;;;;;;5115171;28;20302;-75
2022/04/17 12:03:34;;;;;;;;;;;21.90;29.20;;;;;;5114983;28;19919;-75
2022/04/17 12:06:01;;;;;;;;;;;21.80;29.50;;;;;;5115188;28;19908;-75
2022/04/17 12:08:31;;;;;;;;;;;21.80;30.00;;;;;;5115019;28;19912;-75
2022/04/17 12:10:57;;;;;;;;;;;21.80;30.70;;;;;;5114030;28;20010;-74
2022/04/17 12:13:24;;;;;;;;;;;21.80;30.10;;;;;;5113667;28;20010;-75
2022/04/17 12:16:02;;;;;;;;;;;21.70;29.70;;;;;;5116393;28;20112;-77
2022/04/17 12:18:29;;;;;;;;;;;21.60;29.70;;;;;;5116576;28;19961;-77
2022/04/17 12:20:59;;;;;;;;;;;21.60;29.10;;;;;;5116304;28;19954;-77
2022/04/17 12:23:25;;;;;;;;;;;21.60;29.40;;;;;;5114395;28;19908;-77
2022/04/17 12:25:51;;;;;;;;;;;21.60;29.20;;;;;;5116053;27;19911;-78
2022/04/17 12:28:16;;;;;;;;;;;21.60;29.30;;;;;;5116160;28;19923;-79
2022/04/17 12:30:42;;;;;;;;;;;21.60;28.80;;;;;;5114181;28;19916;-79
2022/04/17 12:33:24;;;;;;;;;;;21.60;29.20;;;;;;5115440;28;19908;-76
2022/04/17 12:36:10;;;;;;;;;;;21.60;30.00;;;;;;5115473;28;19999;-79
2022/04/17 12:38:40;;;;;;;;;;;21.70;32.50;;;;;;5114004;28;19912;-76
2022/04/17 12:41:18;;;;;;;;;;;21.70;33.80;;;;;;5113502;28;19907;-75
2022/04/17 12:43:46;;;;;;;;;;;21.80;33.90;;;;;;5114314;28;19916;-77
2022/04/17 12:46:21;;;;;;;;;;;21.80;34.80;;;;;;5114451;28;19914;-75
2022/04/17 12:48:47;;;;;;;;;;;21.80;35.50;;;;;;5112781;28;20052;-74
2022/04/17 12:51:12;;;;;;;;;;;21.90;35.50;;;;;;5114494;28;19994;-76
2022/04/17 12:53:39;;;;;;;;;;;21.80;35.50;;;;;;5114075;28;19915;-76
2022/04/17 12:56:05;;;;;;;;;;;21.80;35.60;;;;;;5114480;28;19908;-73
2022/04/17 12:58:50;;;;;;;;;;;21.80;35.70;;;;;;5113883;28;19912;-73
2022/04/17 13:01:23;;;;;;;;;;;21.80;35.70;;;;;;5112709;28;19908;-74
2022/04/17 13:03:48;;;;;;;;;;;21.80;35.80;;;;;;5114040;28;19916;-76
2022/04/17 13:06:21;;;;;;;;;;;21.90;36.10;;;;;;5114515;28;19922;-75
2022/04/17 13:09:05;;;;;;;;;;;21.80;36.10;;;;;;5113666;28;19908;-76
2022/04/17 13:11:39;;;;;;;;;;;21.80;36.10;;;;;;5113878;28;19908;-72
2022/04/17 13:14:05;;;;;;;;;;;21.80;36.30;;;;;;5113878;28;19907;-73
2022/04/17 13:16:33;;;;;;;;;;;21.80;36.50;;;;;;5113866;28;20367;-73
2022/04/17 13:18:59;;;;;;;;;;;21.80;36.50;;;;;;5113543;28;19916;-73
2022/04/17 13:21:24;;;;;;;;;;;21.80;36.50;;;;;;5113688;28;19914;-72
2022/04/17 13:23:50;;;;;;;;;;;21.80;36.60;;;;;;5113583;28;19915;-73
2022/04/17 13:26:17;;;;;;;;;;;21.90;36.70;;;;;;5113962;28;19912;-73
2022/04/17 13:28:42;;;;;;;;;;;21.80;36.80;;;;;;5111945;28;19976;-72
2022/04/17 13:31:08;;;;;;;;;;;21.90;36.90;;;;;;5113683;28;20359;-73
2022/04/17 13:33:33;;;;;;;;;;;21.80;37.00;;;;;;5113510;28;19954;-73
2022/04/17 13:35:59;;;;;;;;;;;21.80;37.00;;;;;;5112430;28;19930;-73
2022/04/17 13:38:24;;;;;;;;;;;21.80;37.00;;;;;;5113085;28;19961;-73
2022/04/17 13:40:50;;;;;;;;;;;21.80;37.10;;;;;;5111742;28;20264;-76
2022/04/17 13:43:15;;;;;;;;;;;21.80;37.20;;;;;;5113076;28;19907;-75
2022/04/17 13:45:41;;;;;;;;;;;21.80;37.20;;;;;;5113158;28;20363;-75
2022/04/17 13:48:07;;;;;;;;;;;21.80;37.20;;;;;;5113359;28;19953;-76
2022/04/17 13:50:34;;;;;;;;;;;21.80;37.30;;;;;;5112897;28;19912;-75
2022/04/17 13:53:00;;;;;;;;;;;21.80;37.40;;;;;;5112651;28;19908;-75
2022/04/17 13:55:27;;;;;;;;;;;21.80;37.60;;;;;;5112995;28;19930;-75
2022/04/17 13:57:53;;;;;;;;;;;21.80;37.50;;;;;;5113154;28;19908;-72
2022/04/17 14:00:19;;;;;;;;;;;21.80;37.60;;;;;;5112687;28;19915;-73
2022/04/17 14:02:44;;;;;;;;;;;21.80;37.60;;;;;;5112781;28;19969;-73
2022/04/17 14:05:10;;;;;;;;;;;21.80;37.70;;;;;;5113052;28;20006;-72
2022/04/17 14:07:36;;;;;;;;;;;21.80;37.80;;;;;;5112870;28;19916;-75
2022/04/17 14:10:01;;;;;;;;;;;21.80;37.80;;;;;;5112624;28;19911;-75
2022/04/17 14:12:28;;;;;;;;;;;21.70;37.70;;;;;;5112735;28;20382;-75
2022/04/17 14:14:56;;;;;;;;;;;21.70;37.80;;;;;;5111257;28;19961;-75
2022/04/17 14:17:22;;;;;;;;;;;21.80;37.80;;;;;;5111390;28;19908;-74
2022/04/17 14:19:47;;;;;;;;;;;21.80;37.90;;;;;;5112274;28;19907;-75
2022/04/17 14:22:12;;;;;;;;;;;21.80;38.00;;;;;;5111453;28;20294;-76
2022/04/17 14:24:38;;;;;;;;;;;21.80;38.10;;;;;;5112420;28;19915;-73
2022/04/17 14:27:04;;;;;;;;;;;21.70;37.90;;;;;;5112608;28;19908;-73
2022/04/17 14:29:29;;;;;;;;;;;21.80;38.10;;;;;;5112104;28;19919;-73
2022/04/17 14:31:56;;;;;;;;;;;21.70;37.90;;;;;;5111779;28;20377;-73